New Castle, NH

10:27 AM EDT on October 31, 2014 (GMT -0400)
Pease International Tradeport | Change Station
CLOSE
Current Station
Airport
Location: Portsmouth,
Elevation: 102 ft
Nearby Weather Stations

Elev 102 ft 43.08 °N, 70.82 °W | Updated 29 minutes ago

Overcast
Overcast
47 °F
Feels Like 47 °F
N
4
Wind Variable Wind from North

Today
High -- | Low -- °F
--% Chance of Precip.
Yesterday
High -- | Low -- °F
Precip. -- in
7:16 AM 5:36 PM
First Quarter, 55% visible
Pressure 30.06 in
Visibility 10.0 miles
Clouds Overcast 6000 ft
Dew Point 34 °F
Humidity 62%
Rainfall 0.00 in
Snow Depth Not available.
UV 1 out of 12
Pollen .10 out of 12
Air Quality Not available.
Flu Activity Not available.
METAR KPSM 311358Z 36003KT 10SM OVC060 08/01 A3005 RMK AO2A SLP180 T00810012

More Conditions Fewer Conditions

Pressure 30.06 in
Visibility 10.0 miles
Clouds Overcast 6000 ft
Dew Point 34 °F
Humidity 62%
Rainfall 0.00 in
Snow Depth Not available.
UV 1 out of 12
Pollen .10 out of 12
Air Quality Not available.
Flu Activity Not available.
METAR KPSM 311358Z 36003KT 10SM OVC060 08/01 A3005 RMK AO2A SLP180 T00810012

More Conditions Fewer Conditions

10-Day Weather Forecast

Almanac

Astronomy

Oct. 31, 2014 Rise Set
Actual Time
Civil Twilight
Nautical Twilight
Astronomical Twilight
Moon
Length of Visible Light
Length of Day
Tomorrow will be .
, % of the Moon is Illuminated

Today's Extremes

State Highs State Lows

Community

WunderPhotos

Upload Photos

1,766,617 photos uploaded!

WunderBlogs® & News

Nearby

Air Quality

  Air Quality AQ Index Pollutant
Not available.

Snow Depth

Station Depth Elevation

Earthquake Activity

City Distance Mag. Time & Date
Minimum magnitude displayed is 2.5.

Coastal Water Temperatures

Place Temperature

Nearby Weather Stations